Portada
METAR-TAF:

METAR-TAF

Aeroports :

Lió, França

latitud: 45-43N, longitud: 004-57E, altitud: 200 m

Observació

L'informe es va fer fa 29 minuts, a les 01:00 UTC
Vent 2 kt del Sud
Temperatura 17°C
Humitat 63%
Pressió 1015 hPa
Visibilitat 10 km o més
sense núvols per sota de 1500 mi sense presència de cumulonimbus.

METAR: LFLY 170100Z AUTO 19002KT CAVOK 17/10 Q1015 NOSIG

Hora: 03:29 (01:29 UTC)

Pronòstic

L'informe es va fer fa 2 hores i 29 minuts, a les 23:00 UTC
Pronòstic vàlid del 17 a les 00 UTC al 17 a les 24 UTC
Vent 2 kt amb direcció variable
Visibilitat 10 km o més
sense núvols per sota de 1500 mi sense presència de cumulonimbus.
Evolucionant progressivament
l' 17 a les 08 UTC al 17 a les 10 UTC
Vent 6 kt del Nord-Est
Evolucionant progressivament
l' 17 a les 20 UTC al 17 a les 22 UTC
Vent 3 kt amb direcció variable

TAF: LFLY 162300Z 1700/1724 VRB02KT CAVOK BECMG 1708/1710 04006KT BECMG 1720/1722 VRB03KT

Observacions i pronòstics meteorològics de més de 4000 aeroports (METAR i TAF).

Les estacions disponibles són els punts grocs i vermells al mapa.

Posi el ratolí al punt desitjat per veure el nom de l'estació.

Feu clic per veure les observacions i els pronòstics meteorològics.

Per canviar el mapa: feu clic els botons verds amb una creu de color negre per apropar; al botó verd amb un guió per allunyar la imatge; o en les fletxes verdes per a mapes adjacents.


METAR-TAF: